sensor_id;sensor_type;location;lat;lon;timestamp;pressure;altitude;pressure_sealevel;temperature;humidity
50774;BME280;36745;48.544;8.918;2023-04-30T00:01:56;97587.13;;;11.88;82.27
50774;BME280;36745;48.544;8.918;2023-04-30T00:05:16;97587.03;;;11.91;82.18
50774;BME280;36745;48.544;8.918;2023-04-30T00:08:35;97595.75;;;11.90;82.31
50774;BME280;36745;48.544;8.918;2023-04-30T00:11:55;97596.53;;;11.90;82.26
50774;BME280;36745;48.544;8.918;2023-04-30T00:15:15;97591.44;;;11.76;82.72
50774;BME280;36745;48.544;8.918;2023-04-30T00:18:35;97589.69;;;11.82;82.64
50774;BME280;36745;48.544;8.918;2023-04-30T00:21:58;97589.78;;;11.78;82.44
50774;BME280;36745;48.544;8.918;2023-04-30T00:25:20;97591.19;;;11.58;84.41
50774;BME280;36745;48.544;8.918;2023-04-30T00:28:43;97592.81;;;11.43;85.53
50774;BME280;36745;48.544;8.918;2023-04-30T00:32:02;97591.25;;;11.42;86.34
50774;BME280;36745;48.544;8.918;2023-04-30T00:35:22;97597.13;;;11.44;86.86
50774;BME280;36745;48.544;8.918;2023-04-30T00:38:42;97595.03;;;11.48;87.10
50774;BME280;36745;48.544;8.918;2023-04-30T00:42:01;97591.19;;;11.58;86.04
50774;BME280;36745;48.544;8.918;2023-04-30T00:45:21;97594.47;;;11.53;87.03
50774;BME280;36745;48.544;8.918;2023-04-30T00:48:42;97597.59;;;11.55;86.81
50774;BME280;36745;48.544;8.918;2023-04-30T00:52:01;97603.97;;;11.52;87.03
50774;BME280;36745;48.544;8.918;2023-04-30T00:55:22;97600.78;;;11.53;86.93
50774;BME280;36745;48.544;8.918;2023-04-30T00:58:41;97606.41;;;11.50;88.31
50774;BME280;36745;48.544;8.918;2023-04-30T01:02:02;97603.84;;;11.55;88.09
50774;BME280;36745;48.544;8.918;2023-04-30T01:05:21;97600.78;;;11.53;87.14
50774;BME280;36745;48.544;8.918;2023-04-30T01:08:41;97606.31;;;11.53;87.56
50774;BME280;36745;48.544;8.918;2023-04-30T01:15:46;97596.66;;;11.45;88.55
50774;BME280;36745;48.544;8.918;2023-04-30T01:19:40;97597.25;;;11.53;88.40
50774;BME280;36745;48.544;8.918;2023-04-30T01:31:13;97579.66;;;11.47;89.15
50774;BME280;36745;48.544;8.918;2023-04-30T01:34:33;97589.16;;;11.46;89.63
50774;BME280;36745;48.544;8.918;2023-04-30T01:38:05;97588.72;;;11.47;89.46
50774;BME280;36745;48.544;8.918;2023-04-30T01:46:20;97581.22;;;11.48;88.35
50774;BME280;36745;48.544;8.918;2023-04-30T01:53:41;97575.25;;;11.36;89.94
50774;BME280;36745;48.544;8.918;2023-04-30T01:57:15;97587.84;;;11.38;89.75
50774;BME280;36745;48.544;8.918;2023-04-30T02:00:36;97584.84;;;11.32;90.01
50774;BME280;36745;48.544;8.918;2023-04-30T02:03:57;97587.03;;;11.24;90.57
50774;BME280;36745;48.544;8.918;2023-04-30T02:07:28;97579.63;;;11.21;90.38
50774;BME280;36745;48.544;8.918;2023-04-30T02:10:56;97575.44;;;11.29;89.86
50774;BME280;36745;48.544;8.918;2023-04-30T02:14:16;97567.50;;;11.31;89.77
50774;BME280;36745;48.544;8.918;2023-04-30T02:17:36;97563.63;;;11.29;89.89
50774;BME280;36745;48.544;8.918;2023-04-30T02:20:55;97573.22;;;11.24;89.98
50774;BME280;36745;48.544;8.918;2023-04-30T02:24:15;97567.25;;;11.13;90.31
50774;BME280;36745;48.544;8.918;2023-04-30T02:27:35;97573.28;;;11.08;90.78
50774;BME280;36745;48.544;8.918;2023-04-30T02:30:55;97570.47;;;11.12;90.68
50774;BME280;36745;48.544;8.918;2023-04-30T02:34:14;97569.91;;;11.17;89.82
50774;BME280;36745;48.544;8.918;2023-04-30T02:37:34;97568.00;;;11.14;90.24
50774;BME280;36745;48.544;8.918;2023-04-30T02:40:54;97574.97;;;11.18;89.72
50774;BME280;36745;48.544;8.918;2023-04-30T02:44:14;97583.25;;;11.18;89.66
50774;BME280;36745;48.544;8.918;2023-04-30T02:47:33;97579.94;;;11.23;89.34
50774;BME280;36745;48.544;8.918;2023-04-30T02:50:53;97582.03;;;11.19;89.38
50774;BME280;36745;48.544;8.918;2023-04-30T02:54:13;97581.38;;;11.15;89.16
50774;BME280;36745;48.544;8.918;2023-04-30T02:57:33;97576.63;;;11.16;88.83
50774;BME280;36745;48.544;8.918;2023-04-30T03:00:53;97578.28;;;11.13;88.60
50774;BME280;36745;48.544;8.918;2023-04-30T03:04:15;97580.91;;;11.04;89.02
50774;BME280;36745;48.544;8.918;2023-04-30T03:07:35;97590.56;;;10.96;89.51
50774;BME280;36745;48.544;8.918;2023-04-30T03:10:55;97579.78;;;11.02;89.22
50774;BME280;36745;48.544;8.918;2023-04-30T03:14:15;97587.38;;;10.98;89.64
50774;BME280;36745;48.544;8.918;2023-04-30T03:17:34;97588.06;;;11.02;89.17
50774;BME280;36745;48.544;8.918;2023-04-30T03:20:54;97584.38;;;10.92;88.69
50774;BME280;36745;48.544;8.918;2023-04-30T03:24:14;97568.97;;;10.94;89.10
50774;BME280;36745;48.544;8.918;2023-04-30T03:27:34;97568.81;;;10.85;89.72
50774;BME280;36745;48.544;8.918;2023-04-30T03:30:54;97561.06;;;10.80;90.08
50774;BME280;36745;48.544;8.918;2023-04-30T03:34:14;97570.47;;;10.83;89.80
50774;BME280;36745;48.544;8.918;2023-04-30T03:37:34;97567.84;;;10.92;89.58
50774;BME280;36745;48.544;8.918;2023-04-30T03:40:53;97558.25;;;10.97;89.04
50774;BME280;36745;48.544;8.918;2023-04-30T03:44:13;97558.22;;;10.84;89.10
50774;BME280;36745;48.544;8.918;2023-04-30T03:47:35;97562.63;;;10.81;89.14
50774;BME280;36745;48.544;8.918;2023-04-30T03:50:54;97561.16;;;10.77;89.29
50774;BME280;36745;48.544;8.918;2023-04-30T03:54:14;97564.81;;;10.74;89.48
50774;BME280;36745;48.544;8.918;2023-04-30T03:57:34;97563.09;;;10.64;90.06
50774;BME280;36745;48.544;8.918;2023-04-30T04:00:54;97556.72;;;10.67;90.02
50774;BME280;36745;48.544;8.918;2023-04-30T04:04:14;97569.59;;;10.57;90.01
50774;BME280;36745;48.544;8.918;2023-04-30T04:07:34;97569.50;;;10.61;90.24
50774;BME280;36745;48.544;8.918;2023-04-30T04:10:54;97571.38;;;10.64;89.58
50774;BME280;36745;48.544;8.918;2023-04-30T04:14:14;97574.81;;;10.68;89.49
50774;BME280;36745;48.544;8.918;2023-04-30T04:17:35;97574.03;;;10.67;89.22
50774;BME280;36745;48.544;8.918;2023-04-30T04:20:55;97581.78;;;10.72;88.91
50774;BME280;36745;48.544;8.918;2023-04-30T04:24:15;97572.91;;;10.65;89.14
50774;BME280;36745;48.544;8.918;2023-04-30T04:27:34;97580.25;;;10.55;89.38
50774;BME280;36745;48.544;8.918;2023-04-30T04:30:54;97585.19;;;10.47;89.64
50774;BME280;36745;48.544;8.918;2023-04-30T04:34:14;97578.91;;;10.47;90.29
50774;BME280;36745;48.544;8.918;2023-04-30T04:37:34;97584.56;;;10.56;90.12
50774;BME280;36745;48.544;8.918;2023-04-30T04:40:55;97591.72;;;10.53;90.31
50774;BME280;36745;48.544;8.918;2023-04-30T04:44:15;97594.53;;;10.66;89.68
50774;BME280;36745;48.544;8.918;2023-04-30T04:47:36;97586.88;;;10.74;88.88
50774;BME280;36745;48.544;8.918;2023-04-30T04:50:56;97592.38;;;10.74;88.19
50774;BME280;36745;48.544;8.918;2023-04-30T04:54:16;97597.66;;;10.68;88.40
50774;BME280;36745;48.544;8.918;2023-04-30T04:57:36;97597.06;;;10.61;88.77
50774;BME280;36745;48.544;8.918;2023-04-30T05:00:56;97599.28;;;10.66;88.94
50774;BME280;36745;48.544;8.918;2023-04-30T05:04:16;97598.22;;;10.76;89.18
50774;BME280;36745;48.544;8.918;2023-04-30T05:07:36;97602.69;;;10.86;88.93
50774;BME280;36745;48.544;8.918;2023-04-30T05:10:55;97604.22;;;10.87;88.92
50774;BME280;36745;48.544;8.918;2023-04-30T05:14:15;97597.94;;;10.86;89.42
50774;BME280;36745;48.544;8.918;2023-04-30T05:17:35;97601.28;;;10.94;89.16
50774;BME280;36745;48.544;8.918;2023-04-30T05:20:55;97597.47;;;11.04;89.09
50774;BME280;36745;48.544;8.918;2023-04-30T05:24:15;97597.47;;;11.04;88.27
50774;BME280;36745;48.544;8.918;2023-04-30T05:27:35;97593.97;;;11.16;88.84
50774;BME280;36745;48.544;8.918;2023-04-30T05:30:54;97595.84;;;11.19;88.99
50774;BME280;36745;48.544;8.918;2023-04-30T05:34:14;97598.41;;;11.26;88.74
50774;BME280;36745;48.544;8.918;2023-04-30T05:37:34;97600.97;;;11.46;88.45
50774;BME280;36745;48.544;8.918;2023-04-30T05:40:54;97601.56;;;11.54;87.79
50774;BME280;36745;48.544;8.918;2023-04-30T05:44:14;97600.47;;;11.64;87.00
50774;BME280;36745;48.544;8.918;2023-04-30T05:47:33;97593.38;;;11.63;86.91
50774;BME280;36745;48.544;8.918;2023-04-30T05:50:53;97591.72;;;11.53;86.30
50774;BME280;36745;48.544;8.918;2023-04-30T05:54:13;97598.03;;;11.66;85.86
50774;BME280;36745;48.544;8.918;2023-04-30T05:57:33;97600.66;;;11.57;85.63
50774;BME280;36745;48.544;8.918;2023-04-30T06:00:54;97599.53;;;11.42;85.45
50774;BME280;36745;48.544;8.918;2023-04-30T06:04:13;97600.47;;;11.64;86.48
50774;BME280;36745;48.544;8.918;2023-04-30T06:07:33;97602.16;;;11.74;86.41
50774;BME280;36745;48.544;8.918;2023-04-30T06:10:53;97604.72;;;11.81;85.96
50774;BME280;36745;48.544;8.918;2023-04-30T06:14:13;97598.72;;;11.95;86.19
50774;BME280;36745;48.544;8.918;2023-04-30T06:17:32;97595.75;;;12.02;85.89
50774;BME280;36745;48.544;8.918;2023-04-30T06:20:52;97599.38;;;11.99;84.56
50774;BME280;36745;48.544;8.918;2023-04-30T06:24:12;97596.63;;;11.74;83.75
50774;BME280;36745;48.544;8.918;2023-04-30T06:27:32;97590.22;;;11.90;84.57
50774;BME280;36745;48.544;8.918;2023-04-30T06:30:52;97599.38;;;11.99;84.33
50774;BME280;36745;48.544;8.918;2023-04-30T06:34:12;97600.06;;;12.03;83.45
50774;BME280;36745;48.544;8.918;2023-04-30T06:37:32;97590.66;;;12.13;84.59
50774;BME280;36745;48.544;8.918;2023-04-30T06:40:55;97591.22;;;12.08;83.34
50774;BME280;36745;48.544;8.918;2023-04-30T06:44:15;97599.94;;;12.07;81.87
50774;BME280;36745;48.544;8.918;2023-04-30T06:47:36;97600.91;;;12.26;82.80
50774;BME280;36745;48.544;8.918;2023-04-30T06:50:57;97602.16;;;12.12;82.07
50774;BME280;36745;48.544;8.918;2023-04-30T06:54:17;97604.00;;;12.28;82.18
50774;BME280;36745;48.544;8.918;2023-04-30T06:57:37;97593.19;;;12.20;81.87
50774;BME280;36745;48.544;8.918;2023-04-30T07:00:56;97599.88;;;12.45;83.00
50774;BME280;36745;48.544;8.918;2023-04-30T07:04:16;97591.81;;;12.38;80.54
50774;BME280;36745;48.544;8.918;2023-04-30T07:07:36;97601.59;;;12.30;81.35
50774;BME280;36745;48.544;8.918;2023-04-30T07:10:56;97592.38;;;12.45;81.31
50774;BME280;36745;48.544;8.918;2023-04-30T07:14:16;97589.88;;;12.73;81.20
50774;BME280;36745;48.544;8.918;2023-04-30T07:17:36;97581.25;;;12.92;81.00
50774;BME280;36745;48.544;8.918;2023-04-30T07:20:56;97582.81;;;12.59;77.90
50774;BME280;36745;48.544;8.918;2023-04-30T07:24:16;97585.09;;;12.39;77.37
50774;BME280;36745;48.544;8.918;2023-04-30T07:27:36;97583.88;;;12.40;77.91
50774;BME280;36745;48.544;8.918;2023-04-30T07:30:56;97576.31;;;12.53;78.43
50774;BME280;36745;48.544;8.918;2023-04-30T07:34:16;97579.31;;;12.80;77.75
50774;BME280;36745;48.544;8.918;2023-04-30T07:37:35;97590.53;;;12.98;77.51
50774;BME280;36745;48.544;8.918;2023-04-30T07:40:55;97576.00;;;13.29;75.14
50774;BME280;36745;48.544;8.918;2023-04-30T07:44:16;97573.56;;;13.31;76.39
50774;BME280;36745;48.544;8.918;2023-04-30T07:47:36;97569.16;;;12.99;74.95
50774;BME280;36745;48.544;8.918;2023-04-30T07:50:56;97582.91;;;13.24;74.83
50774;BME280;36745;48.544;8.918;2023-04-30T07:54:15;97579.34;;;13.24;75.42
50774;BME280;36745;48.544;8.918;2023-04-30T07:57:35;97571.22;;;13.51;75.11
50774;BME280;36745;48.544;8.918;2023-04-30T08:00:55;97575.94;;;13.72;74.04
50774;BME280;36745;48.544;8.918;2023-04-30T08:04:15;97575.16;;;13.41;71.61
50774;BME280;36745;48.544;8.918;2023-04-30T08:07:35;97584.09;;;13.45;71.52
50774;BME280;36745;48.544;8.918;2023-04-30T08:10:54;97579.22;;;13.49;72.76
50774;BME280;36745;48.544;8.918;2023-04-30T08:14:14;97568.78;;;13.53;70.88
50774;BME280;36745;48.544;8.918;2023-04-30T08:17:34;97572.53;;;13.68;70.68
50774;BME280;36745;48.544;8.918;2023-04-30T08:20:54;97578.00;;;13.81;67.81
50774;BME280;36745;48.544;8.918;2023-04-30T08:24:14;97575.56;;;13.61;69.40
50774;BME280;36745;48.544;8.918;2023-04-30T08:27:34;97577.22;;;13.80;69.48
50774;BME280;36745;48.544;8.918;2023-04-30T08:30:54;97583.81;;;14.14;68.46
50774;BME280;36745;48.544;8.918;2023-04-30T08:34:14;97579.00;;;14.14;67.69
50774;BME280;36745;48.544;8.918;2023-04-30T08:37:34;97579.28;;;14.47;68.35
50774;BME280;36745;48.544;8.918;2023-04-30T08:41:08;97571.63;;;14.79;67.33
50774;BME280;36745;48.544;8.918;2023-04-30T08:44:30;97580.09;;;14.93;66.11
50774;BME280;36745;48.544;8.918;2023-04-30T08:47:50;97574.06;;;14.58;65.28
50774;BME280;36745;48.544;8.918;2023-04-30T08:51:10;97581.94;;;14.96;66.48
50774;BME280;36745;48.544;8.918;2023-04-30T08:54:30;97570.66;;;14.63;62.73
50774;BME280;36745;48.544;8.918;2023-04-30T08:57:52;97576.19;;;14.45;63.64
50774;BME280;36745;48.544;8.918;2023-04-30T09:01:12;97569.28;;;14.59;64.05
50774;BME280;36745;48.544;8.918;2023-04-30T09:04:32;97572.81;;;14.50;62.88
50774;BME280;36745;48.544;8.918;2023-04-30T09:07:51;97577.16;;;14.97;64.81
50774;BME280;36745;48.544;8.918;2023-04-30T09:11:25;97578.53;;;14.74;62.54
50774;BME280;36745;48.544;8.918;2023-04-30T09:15:01;97567.75;;;14.85;64.11
50774;BME280;36745;48.544;8.918;2023-04-30T09:18:22;97566.66;;;15.01;60.62
50774;BME280;36745;48.544;8.918;2023-04-30T09:21:41;97564.78;;;14.43;60.59
50774;BME280;36745;48.544;8.918;2023-04-30T09:25:01;97574.69;;;14.72;61.12
50774;BME280;36745;48.544;8.918;2023-04-30T09:28:22;97574.22;;;14.91;61.02
50774;BME280;36745;48.544;8.918;2023-04-30T09:31:45;97579.94;;;15.06;60.58
50774;BME280;36745;48.544;8.918;2023-04-30T09:35:05;97571.94;;;14.90;58.68
50774;BME280;36745;48.544;8.918;2023-04-30T09:38:30;97575.00;;;14.92;59.78
50774;BME280;36745;48.544;8.918;2023-04-30T09:41:50;97582.69;;;14.97;58.88
50774;BME280;36745;48.544;8.918;2023-04-30T09:45:12;97570.66;;;15.18;59.02
50774;BME280;36745;48.544;8.918;2023-04-30T09:48:32;97571.28;;;15.22;57.29
50774;BME280;36745;48.544;8.918;2023-04-30T09:52:00;97567.59;;;14.98;58.02
50774;BME280;36745;48.544;8.918;2023-04-30T09:55:21;97576.06;;;15.03;56.96
50774;BME280;36745;48.544;8.918;2023-04-30T09:58:43;97565.13;;;15.00;58.49
50774;BME280;36745;48.544;8.918;2023-04-30T10:02:07;97559.13;;;14.83;57.33
50774;BME280;36745;48.544;8.918;2023-04-30T10:05:27;97568.06;;;15.05;57.90
50774;BME280;36745;48.544;8.918;2023-04-30T10:08:50;97562.66;;;15.02;57.02
50774;BME280;36745;48.544;8.918;2023-04-30T10:12:21;97564.19;;;15.03;57.46
50774;BME280;36745;48.544;8.918;2023-04-30T10:15:48;97566.34;;;15.08;57.28
50774;BME280;36745;48.544;8.918;2023-04-30T10:19:13;97567.53;;;15.34;55.35
50774;BME280;36745;48.544;8.918;2023-04-30T10:22:34;97569.13;;;15.08;54.93
50774;BME280;36745;48.544;8.918;2023-04-30T10:25:55;97552.72;;;15.46;55.06
50774;BME280;36745;48.544;8.918;2023-04-30T10:29:16;97557.53;;;15.88;54.47
50774;BME280;36745;48.544;8.918;2023-04-30T10:36:27;97548.31;;;15.73;53.79
50774;BME280;36745;48.544;8.918;2023-04-30T10:39:49;97554.16;;;15.84;52.81
50774;BME280;36745;48.544;8.918;2023-04-30T10:43:10;97544.19;;;15.68;53.62
50774;BME280;36745;48.544;8.918;2023-04-30T10:46:30;97548.91;;;15.77;51.77
50774;BME280;36745;48.544;8.918;2023-04-30T10:49:49;97533.56;;;15.48;51.82
50774;BME280;36745;48.544;8.918;2023-04-30T10:53:13;97541.31;;;15.53;52.42
50774;BME280;36745;48.544;8.918;2023-04-30T10:56:35;97537.41;;;15.51;52.57
50774;BME280;36745;48.544;8.918;2023-04-30T11:03:33;97540.72;;;15.31;52.15
50774;BME280;36745;48.544;8.918;2023-04-30T11:10:25;97536.34;;;15.39;53.92
50774;BME280;36745;48.544;8.918;2023-04-30T11:13:47;97536.63;;;15.50;53.41
50774;BME280;36745;48.544;8.918;2023-04-30T11:17:08;97531.16;;;15.32;52.95
50774;BME280;36745;48.544;8.918;2023-04-30T11:20:28;97527.69;;;15.46;52.28
50774;BME280;36745;48.544;8.918;2023-04-30T11:23:48;97529.63;;;15.22;51.91
50774;BME280;36745;48.544;8.918;2023-04-30T11:27:11;97529.50;;;14.98;52.70
50774;BME280;36745;48.544;8.918;2023-04-30T11:30:32;97520.81;;;15.33;53.01
50774;BME280;36745;48.544;8.918;2023-04-30T11:33:54;97517.13;;;15.27;51.76
50774;BME280;36745;48.544;8.918;2023-04-30T11:37:43;97518.59;;;15.46;52.54
50774;BME280;36745;48.544;8.918;2023-04-30T11:41:04;97508.78;;;15.78;52.82
50774;BME280;36745;48.544;8.918;2023-04-30T11:44:27;97503.09;;;15.72;52.08
50774;BME280;36745;48.544;8.918;2023-04-30T11:47:51;97503.94;;;15.87;52.24
50774;BME280;36745;48.544;8.918;2023-04-30T11:54:35;97507.97;;;15.53;51.68
50774;BME280;36745;48.544;8.918;2023-04-30T11:57:56;97506.16;;;15.74;52.19
50774;BME280;36745;48.544;8.918;2023-04-30T12:01:18;97505.97;;;16.11;51.37
50774;BME280;36745;48.544;8.918;2023-04-30T12:04:42;97503.13;;;15.96;49.63
50774;BME280;36745;48.544;8.918;2023-04-30T12:08:03;97491.03;;;16.08;49.48
50774;BME280;36745;48.544;8.918;2023-04-30T12:11:27;97512.84;;;16.24;49.17
50774;BME280;36745;48.544;8.918;2023-04-30T12:14:47;97500.47;;;16.25;49.25
50774;BME280;36745;48.544;8.918;2023-04-30T12:18:11;97497.75;;;16.64;49.92
50774;BME280;36745;48.544;8.918;2023-04-30T12:21:32;97498.25;;;16.77;49.65
50774;BME280;36745;48.544;8.918;2023-04-30T12:24:53;97510.69;;;16.43;48.92
50774;BME280;36745;48.544;8.918;2023-04-30T12:28:14;97495.38;;;16.00;49.55
50774;BME280;36745;48.544;8.918;2023-04-30T12:31:35;97492.66;;;16.38;49.23
50774;BME280;36745;48.544;8.918;2023-04-30T12:35:00;97478.69;;;16.86;48.32
50774;BME280;36745;48.544;8.918;2023-04-30T12:38:20;97487.78;;;16.72;48.15
50774;BME280;36745;48.544;8.918;2023-04-30T12:45:01;97482.56;;;16.65;47.76
50774;BME280;36745;48.544;8.918;2023-04-30T12:48:24;97477.41;;;16.72;47.20
50774;BME280;36745;48.544;8.918;2023-04-30T12:51:44;97479.13;;;16.70;48.52
50774;BME280;36745;48.544;8.918;2023-04-30T12:55:17;97457.06;;;16.66;47.93
50774;BME280;36745;48.544;8.918;2023-04-30T12:58:38;97465.94;;;16.94;47.25
50774;BME280;36745;48.544;8.918;2023-04-30T13:02:25;97451.31;;;17.14;46.99
50774;BME280;36745;48.544;8.918;2023-04-30T13:05:54;97457.84;;;16.96;45.57
50774;BME280;36745;48.544;8.918;2023-04-30T13:09:13;97455.75;;;16.53;45.88
50774;BME280;36745;48.544;8.918;2023-04-30T13:12:33;97461.38;;;16.44;46.39
50774;BME280;36745;48.544;8.918;2023-04-30T13:15:53;97451.72;;;16.15;46.58
50774;BME280;36745;48.544;8.918;2023-04-30T13:19:13;97449.84;;;16.36;47.43
50774;BME280;36745;48.544;8.918;2023-04-30T13:22:33;97443.50;;;16.74;46.78
50774;BME280;36745;48.544;8.918;2023-04-30T13:25:52;97439.81;;;17.21;46.09
50774;BME280;36745;48.544;8.918;2023-04-30T13:29:12;97446.34;;;16.89;45.63
50774;BME280;36745;48.544;8.918;2023-04-30T13:32:32;97447.47;;;16.67;45.87
50774;BME280;36745;48.544;8.918;2023-04-30T13:35:52;97442.38;;;16.95;46.42
50774;BME280;36745;48.544;8.918;2023-04-30T13:39:11;97449.50;;;16.96;45.95
50774;BME280;36745;48.544;8.918;2023-04-30T13:42:31;97448.16;;;16.77;47.12
50774;BME280;36745;48.544;8.918;2023-04-30T13:45:51;97443.81;;;16.91;47.06
50774;BME280;36745;48.544;8.918;2023-04-30T13:49:11;97431.97;;;16.52;45.81
50774;BME280;36745;48.544;8.918;2023-04-30T13:52:31;97438.44;;;16.72;46.94
50774;BME280;36745;48.544;8.918;2023-04-30T13:55:51;97427.88;;;16.62;46.92
50774;BME280;36745;48.544;8.918;2023-04-30T13:59:11;97424.03;;;16.59;47.14
50774;BME280;36745;48.544;8.918;2023-04-30T14:02:31;97423.28;;;16.88;47.64
50774;BME280;36745;48.544;8.918;2023-04-30T14:05:51;97401.38;;;16.81;47.20
50774;BME280;36745;48.544;8.918;2023-04-30T14:09:11;97402.25;;;16.87;47.00
50774;BME280;36745;48.544;8.918;2023-04-30T14:12:31;97408.97;;;16.95;47.27
50774;BME280;36745;48.544;8.918;2023-04-30T14:15:50;97414.53;;;16.81;45.91
50774;BME280;36745;48.544;8.918;2023-04-30T14:19:10;97404.72;;;16.56;46.59
50774;BME280;36745;48.544;8.918;2023-04-30T14:22:30;97402.84;;;16.38;45.85
50774;BME280;36745;48.544;8.918;2023-04-30T14:25:52;97394.94;;;16.22;47.24
50774;BME280;36745;48.544;8.918;2023-04-30T14:29:12;97392.69;;;16.50;47.73
50774;BME280;36745;48.544;8.918;2023-04-30T14:32:32;97392.16;;;16.75;47.47
50774;BME280;36745;48.544;8.918;2023-04-30T14:35:52;97392.78;;;16.41;46.92
50774;BME280;36745;48.544;8.918;2023-04-30T14:39:11;97391.59;;;16.71;47.97
50774;BME280;36745;48.544;8.918;2023-04-30T14:42:31;97400.91;;;16.97;45.90
50774;BME280;36745;48.544;8.918;2023-04-30T14:45:52;97392.75;;;16.64;46.66
50774;BME280;36745;48.544;8.918;2023-04-30T14:49:12;97388.34;;;16.87;46.95
50774;BME280;36745;48.544;8.918;2023-04-30T14:52:31;97381.78;;;16.90;46.68
50774;BME280;36745;48.544;8.918;2023-04-30T14:55:51;97388.50;;;16.69;46.70
50774;BME280;36745;48.544;8.918;2023-04-30T14:59:11;97378.16;;;16.69;46.99
50774;BME280;36745;48.544;8.918;2023-04-30T15:02:31;97366.34;;;16.89;46.75
50774;BME280;36745;48.544;8.918;2023-04-30T15:05:51;97369.81;;;16.84;46.77
50774;BME280;36745;48.544;8.918;2023-04-30T15:09:11;97386.22;;;16.82;46.82
50774;BME280;36745;48.544;8.918;2023-04-30T15:12:32;97380.56;;;16.62;46.47
50774;BME280;36745;48.544;8.918;2023-04-30T15:15:54;97379.38;;;16.54;46.62
50774;BME280;36745;48.544;8.918;2023-04-30T15:19:14;97374.09;;;16.56;47.02
50774;BME280;36745;48.544;8.918;2023-04-30T15:22:33;97364.66;;;16.38;47.18
50774;BME280;36745;48.544;8.918;2023-04-30T15:25:53;97384.59;;;16.22;47.40
50774;BME280;36745;48.544;8.918;2023-04-30T15:29:13;97383.47;;;16.29;47.05
50774;BME280;36745;48.544;8.918;2023-04-30T15:32:33;97375.53;;;16.51;47.08
50774;BME280;36745;48.544;8.918;2023-04-30T15:35:53;97373.91;;;16.74;47.26
50774;BME280;36745;48.544;8.918;2023-04-30T15:39:13;97372.56;;;16.55;46.61
50774;BME280;36745;48.544;8.918;2023-04-30T15:42:33;97372.53;;;16.40;46.99
50774;BME280;36745;48.544;8.918;2023-04-30T15:45:52;97375.81;;;16.38;46.87
50774;BME280;36745;48.544;8.918;2023-04-30T15:49:12;97362.19;;;16.41;46.95
50774;BME280;36745;48.544;8.918;2023-04-30T15:52:32;97358.31;;;16.62;47.20
50774;BME280;36745;48.544;8.918;2023-04-30T15:55:52;97359.06;;;16.77;46.43
50774;BME280;36745;48.544;8.918;2023-04-30T15:59:12;97357.03;;;16.63;46.69
50774;BME280;36745;48.544;8.918;2023-04-30T16:02:34;97350.31;;;16.69;46.69
50774;BME280;36745;48.544;8.918;2023-04-30T16:05:54;97348.09;;;16.73;46.38
50774;BME280;36745;48.544;8.918;2023-04-30T16:09:13;97343.97;;;16.69;46.53
50774;BME280;36745;48.544;8.918;2023-04-30T16:12:35;97343.50;;;16.85;46.89
50774;BME280;36745;48.544;8.918;2023-04-30T16:15:55;97352.44;;;16.60;46.54
50774;BME280;36745;48.544;8.918;2023-04-30T16:19:15;97346.44;;;16.37;46.80
50774;BME280;36745;48.544;8.918;2023-04-30T16:22:35;97337.31;;;16.37;47.16
50774;BME280;36745;48.544;8.918;2023-04-30T16:25:55;97339.16;;;16.55;47.02
50774;BME280;36745;48.544;8.918;2023-04-30T16:29:15;97338.91;;;16.14;46.88
50774;BME280;36745;48.544;8.918;2023-04-30T16:32:35;97329.72;;;16.08;46.98
50774;BME280;36745;48.544;8.918;2023-04-30T16:35:54;97334.97;;;16.06;46.90
50774;BME280;36745;48.544;8.918;2023-04-30T16:39:14;97334.09;;;16.00;47.08
50774;BME280;36745;48.544;8.918;2023-04-30T16:42:34;97326.78;;;15.88;47.05
50774;BME280;36745;48.544;8.918;2023-04-30T16:45:54;97321.88;;;15.83;47.00
50774;BME280;36745;48.544;8.918;2023-04-30T16:49:14;97324.41;;;15.95;47.42
50774;BME280;36745;48.544;8.918;2023-04-30T16:52:34;97324.97;;;15.85;47.32
50774;BME280;36745;48.544;8.918;2023-04-30T16:55:54;97321.38;;;15.70;47.37
50774;BME280;36745;48.544;8.918;2023-04-30T16:59:13;97326.28;;;15.75;47.69
50774;BME280;36745;48.544;8.918;2023-04-30T17:02:33;97327.44;;;15.83;47.83
50774;BME280;36745;48.544;8.918;2023-04-30T17:05:53;97318.75;;;15.90;48.00
50774;BME280;36745;48.544;8.918;2023-04-30T17:09:13;97324.13;;;15.93;47.93
50774;BME280;36745;48.544;8.918;2023-04-30T17:12:33;97331.28;;;15.85;47.85
50774;BME280;36745;48.544;8.918;2023-04-30T17:15:52;97320.66;;;15.60;48.10
50774;BME280;36745;48.544;8.918;2023-04-30T17:19:17;97331.03;;;15.60;48.39
50774;BME280;36745;48.544;8.918;2023-04-30T17:22:37;97341.88;;;15.48;48.42
50774;BME280;36745;48.544;8.918;2023-04-30T17:25:57;97342.41;;;15.62;48.38
50774;BME280;36745;48.544;8.918;2023-04-30T17:29:17;97328.91;;;15.55;48.36
50774;BME280;36745;48.544;8.918;2023-04-30T17:32:39;97332.41;;;15.55;48.47
50774;BME280;36745;48.544;8.918;2023-04-30T17:35:58;97344.44;;;15.61;48.50
50774;BME280;36745;48.544;8.918;2023-04-30T17:39:18;97341.19;;;15.63;48.52
50774;BME280;36745;48.544;8.918;2023-04-30T17:42:38;97346.50;;;15.51;48.65
50774;BME280;36745;48.544;8.918;2023-04-30T17:45:58;97343.44;;;15.40;48.89
50774;BME280;36745;48.544;8.918;2023-04-30T17:49:18;97349.78;;;15.41;49.03
50774;BME280;36745;48.544;8.918;2023-04-30T17:52:37;97343.72;;;15.51;48.89
50774;BME280;36745;48.544;8.918;2023-04-30T17:55:59;97349.44;;;15.48;49.04
50774;BME280;36745;48.544;8.918;2023-04-30T17:59:18;97351.13;;;15.45;49.19
50774;BME280;36745;48.544;8.918;2023-04-30T18:02:38;97360.81;;;15.26;49.72
50774;BME280;36745;48.544;8.918;2023-04-30T18:05:58;97367.72;;;15.31;49.47
50774;BME280;36745;48.544;8.918;2023-04-30T18:09:18;97357.09;;;15.29;49.46
50774;BME280;36745;48.544;8.918;2023-04-30T18:12:38;97363.28;;;15.24;49.80
50774;BME280;36745;48.544;8.918;2023-04-30T18:15:57;97374.44;;;15.15;49.87
50774;BME280;36745;48.544;8.918;2023-04-30T18:19:17;97374.19;;;15.04;49.79
50774;BME280;36745;48.544;8.918;2023-04-30T18:22:37;97371.06;;;15.11;50.06